Time;durP1;ratioP1;P1;durP2;ratioP2;P2;SDS_P1;SDS_P2;PMS_P1;PMS_P2;Temp;Humidity;BMP_temperature;BMP_pressure;BME280_temperature;BME280_humidity;BME280_pressure;Samples;Min_cycle;Max_cycle;Signal;HPM_P1;HPM_P2
2023/03/28 00:00:49;;;;;;;3.03;1.00;;;;;;;1.20;100.00;98710.19;15282439;19;20025;-74
2023/03/28 00:06:17;;;;;;;3.30;1.00;;;;;;;1.17;100.00;98714.84;15277347;19;20034;-74
2023/03/28 00:11:45;;;;;;;5.45;1.13;;;;;;;1.15;100.00;98720.22;15276608;19;20022;-74
2023/03/28 00:17:11;;;;;;;2.25;0.95;;;;;;;1.18;100.00;98724.50;15285167;19;20372;-74
2023/03/28 00:22:36;;;;;;;5.50;1.20;;;;;;;1.20;100.00;98717.28;15279735;19;20041;-74
2023/03/28 00:28:05;;;;;;;4.68;1.00;;;;;;;1.19;100.00;98710.28;15286161;19;20053;-76
2023/03/28 00:33:30;;;;;;;3.20;1.10;;;;;;;1.17;100.00;98713.03;15284108;19;20014;-74
2023/03/28 00:39:00;;;;;;;5.55;1.10;;;;;;;1.11;100.00;98718.72;15313831;19;20070;-74
2023/03/28 00:45:01;;;;;;;4.53;1.20;;;;;;;1.20;100.00;98728.78;15294173;19;20014;-76
2023/03/28 00:50:32;;;;;;;5.43;1.10;;;;;;;1.23;100.00;98736.53;15298121;19;20018;-74
2023/03/28 00:56:00;;;;;;;5.78;1.20;;;;;;;1.26;100.00;98721.38;15282249;19;20082;-74
2023/03/28 01:01:26;;;;;;;5.57;1.13;;;;;;;1.17;100.00;98721.00;15280436;19;20071;-77
2023/03/28 01:06:57;;;;;;;9.32;1.40;;;;;;;1.15;100.00;98720.22;15283172;19;20043;-77
2023/03/28 01:12:24;;;;;;;4.95;1.00;;;;;;;1.12;100.00;98720.41;15286879;19;20023;-77
2023/03/28 01:17:49;;;;;;;9.57;1.50;;;;;;;1.16;100.00;98727.25;15283918;19;20505;-77
2023/03/28 01:23:51;;;;;;;6.70;1.50;;;;;;;1.16;100.00;98719.28;15297561;19;20046;-77
2023/03/28 01:30:11;;;;;;;5.25;1.42;;;;;;;1.14;100.00;98734.44;15292505;19;20010;-78
2023/03/28 01:36:24;;;;;;;7.50;1.60;;;;;;;1.11;100.00;98753.22;15296242;19;20010;-78
2023/03/28 01:42:05;;;;;;;6.40;1.30;;;;;;;1.07;100.00;98728.66;15294557;19;20031;-78
2023/03/28 01:47:38;;;;;;;6.70;1.50;;;;;;;1.07;100.00;98749.03;15286670;19;20022;-77
2023/03/28 01:53:11;;;;;;;6.22;1.25;;;;;;;1.09;100.00;98744.50;15293551;19;20039;-76
2023/03/28 01:58:46;;;;;;;5.95;1.50;;;;;;;1.08;100.00;98740.13;15303153;19;20010;-77
2023/03/28 02:04:34;;;;;;;5.38;1.38;;;;;;;1.07;100.00;98746.38;15317030;19;20010;-79
2023/03/28 02:10:00;;;;;;;5.93;1.60;;;;;;;1.05;100.00;98743.84;15320294;19;20015;-78
2023/03/28 02:15:49;;;;;;;6.53;1.40;;;;;;;1.03;100.00;98752.81;15313412;19;20021;-79
2023/03/28 02:21:23;;;;;;;8.63;1.50;;;;;;;1.02;100.00;98751.09;15295124;19;20429;-76
2023/03/28 02:27:15;;;;;;;4.65;1.20;;;;;;;1.01;100.00;98767.97;15272490;19;20022;-78
2023/03/28 02:32:50;;;;;;;5.50;1.58;;;;;;;1.02;100.00;98756.41;15272692;19;20028;-79
2023/03/28 02:38:21;;;;;;;6.07;1.50;;;;;;;1.04;100.00;98760.72;15271726;19;20093;-78
2023/03/28 02:44:06;;;;;;;5.35;1.15;;;;;;;0.98;100.00;98776.13;15274220;19;20385;-77
2023/03/28 02:49:56;;;;;;;7.37;1.53;;;;;;;0.97;100.00;98774.44;15274963;19;20090;-81
2023/03/28 02:55:30;;;;;;;8.10;1.60;;;;;;;0.92;100.00;98774.72;15280334;19;20342;-77
2023/03/28 03:01:02;;;;;;;6.05;1.55;;;;;;;0.96;100.00;98784.16;15268839;19;20023;-78
2023/03/28 03:06:33;;;;;;;8.95;1.65;;;;;;;0.92;100.00;98783.50;15279861;19;20018;-79
2023/03/28 03:11:58;;;;;;;7.30;1.77;;;;;;;0.97;100.00;98790.34;15279248;19;20022;-78
2023/03/28 03:17:23;;;;;;;6.53;1.73;;;;;;;0.95;100.00;98781.63;15304242;19;20379;-79
2023/03/28 03:22:52;;;;;;;4.45;1.30;;;;;;;0.94;100.00;98787.88;15326713;19;20477;-78
2023/03/28 03:28:19;;;;;;;6.88;1.60;;;;;;;0.94;100.00;98790.53;15280711;19;20011;-77
2023/03/28 03:33:47;;;;;;;5.20;1.40;;;;;;;0.94;100.00;98791.41;15285254;19;20014;-75
2023/03/28 03:39:20;;;;;;;7.35;1.65;;;;;;;0.87;100.00;98790.03;15297428;19;20037;-76
2023/03/28 03:44:46;;;;;;;7.15;1.90;;;;;;;0.82;100.00;98803.56;15309273;19;20039;-77
2023/03/28 03:50:12;;;;;;;7.75;1.55;;;;;;;0.81;100.00;98809.81;15307620;19;20043;-76
2023/03/28 03:55:40;;;;;;;6.72;1.85;;;;;;;0.83;100.00;98825.63;15296594;19;20022;-76
2023/03/28 04:01:08;;;;;;;9.55;1.60;;;;;;;0.81;100.00;98828.38;15263979;19;20023;-75
2023/03/28 04:06:34;;;;;;;6.03;1.42;;;;;;;0.78;100.00;98833.84;15257759;19;20033;-76
2023/03/28 04:12:02;;;;;;;6.20;1.35;;;;;;;0.65;100.00;98844.31;15258785;19;20377;-75
2023/03/28 04:17:33;;;;;;;6.57;1.45;;;;;;;0.60;100.00;98849.91;15260647;19;20010;-75
2023/03/28 04:23:04;;;;;;;6.32;1.40;;;;;;;0.65;100.00;98859.41;15255559;19;20047;-76
2023/03/28 04:28:33;;;;;;;7.13;1.70;;;;;;;0.69;100.00;98856.47;15259645;19;20018;-76
2023/03/28 04:33:59;;;;;;;6.95;1.50;;;;;;;0.70;100.00;98875.88;15261716;19;20473;-78
2023/03/28 04:39:40;;;;;;;7.27;1.70;;;;;;;0.73;100.00;98876.56;15270380;19;20018;-78
2023/03/28 04:45:34;;;;;;;7.80;1.83;;;;;;;0.73;100.00;98888.97;15271303;19;20019;-77
2023/03/28 04:51:01;;;;;;;5.57;1.50;;;;;;;0.75;100.00;98893.25;15328552;19;20041;-77
2023/03/28 04:56:28;;;;;;;6.10;1.60;;;;;;;0.78;100.00;98894.84;15266305;19;20011;-80
2023/03/28 05:01:57;;;;;;;7.47;1.40;;;;;;;0.79;100.00;98898.38;15258416;19;20010;-78
2023/03/28 05:07:27;;;;;;;6.60;1.38;;;;;;;0.79;100.00;98914.28;15263998;19;20027;-78
2023/03/28 05:12:52;;;;;;;5.13;1.50;;;;;;;0.75;100.00;98919.75;15259783;19;20018;-77
2023/03/28 05:18:26;;;;;;;7.30;1.60;;;;;;;0.72;100.00;98913.78;15262442;19;20018;-77
2023/03/28 05:23:52;;;;;;;6.32;1.67;;;;;;;0.69;100.00;98935.16;15260333;19;20101;-77
2023/03/28 05:29:18;;;;;;;9.05;2.00;;;;;;;0.68;100.00;98929.03;15260772;19;20014;-77
2023/03/28 05:34:45;;;;;;;6.18;1.63;;;;;;;0.70;100.00;98943.06;15257983;19;20014;-76
2023/03/28 05:40:15;;;;;;;9.23;1.88;;;;;;;0.76;100.00;98936.56;15259565;19;20017;-77
2023/03/28 05:45:41;;;;;;;11.27;2.00;;;;;;;0.76;100.00;98955.97;15274153;19;20018;-78
2023/03/28 05:51:15;;;;;;;7.55;1.90;;;;;;;0.80;100.00;98953.97;15287452;19;20010;-78
2023/03/28 05:56:43;;;;;;;9.25;2.10;;;;;;;0.80;100.00;98964.59;15309624;19;20038;-79
2023/03/28 06:02:13;;;;;;;8.05;1.80;;;;;;;0.84;100.00;98971.44;15305520;19;20035;-78
2023/03/28 06:07:44;;;;;;;8.05;1.92;;;;;;;0.90;100.00;98971.09;15275084;19;20015;-78
2023/03/28 06:13:12;;;;;;;7.50;1.70;;;;;;;1.00;100.00;98992.66;15276152;19;20368;-74
2023/03/28 06:18:39;;;;;;;9.73;1.98;;;;;;;1.05;100.00;99008.31;15275360;19;20391;-78
2023/03/28 06:24:06;;;;;;;6.03;1.70;;;;;;;1.10;100.00;99008.94;15277902;19;20342;-75
2023/03/28 06:29:32;;;;;;;10.15;2.13;;;;;;;1.18;100.00;99013.78;15275144;19;20025;-76
2023/03/28 06:34:56;;;;;;;8.30;1.77;;;;;;;1.17;100.00;99025.38;15280387;19;20019;-75
2023/03/28 06:40:24;;;;;;;10.95;2.00;;;;;;;1.19;100.00;99026.97;15289295;19;20023;-76
2023/03/28 06:45:50;;;;;;;8.77;1.80;;;;;;;1.35;100.00;99034.91;15290461;19;20046;-75
2023/03/28 06:51:17;;;;;;;7.28;1.90;;;;;;;1.38;100.00;99052.47;15288788;19;20018;-73
2023/03/28 06:56:45;;;;;;;7.22;1.60;;;;;;;1.42;100.00;99046.03;15286545;19;20022;-73
2023/03/28 07:02:11;;;;;;;8.43;1.90;;;;;;;1.49;100.00;99059.84;15281117;19;20017;-74
2023/03/28 07:07:40;;;;;;;8.43;1.70;;;;;;;1.67;100.00;99055.25;15285575;19;20006;-75
2023/03/28 07:13:07;;;;;;;8.48;1.90;;;;;;;1.84;100.00;99052.44;15275571;19;20025;-74
2023/03/28 07:18:40;;;;;;;8.82;1.92;;;;;;;1.84;100.00;99047.13;15285667;19;20010;-74
2023/03/28 07:24:15;;;;;;;8.38;1.90;;;;;;;1.85;100.00;99066.63;15285310;19;20010;-73
2023/03/28 07:29:52;;;;;;;7.30;1.80;;;;;;;2.00;100.00;99078.13;15281777;19;20018;-74
2023/03/28 07:35:18;;;;;;;10.07;2.05;;;;;;;2.21;100.00;99080.44;15289598;19;20014;-74
2023/03/28 07:40:43;;;;;;;11.85;2.13;;;;;;;2.09;100.00;99087.38;15284811;19;20275;-74
2023/03/28 07:46:13;;;;;;;8.93;1.60;;;;;;;2.15;100.00;99087.88;15279294;19;20062;-75
2023/03/28 07:51:33;;;;;;;5.97;1.42;;;;;;;2.26;100.00;99097.00;15280171;19;20011;-74
2023/03/28 07:56:59;;;;;;;9.57;1.90;;;;;;;2.34;100.00;99121.31;15283452;19;20010;-75
2023/03/28 08:02:39;;;;;;;7.80;1.55;;;;;;;2.42;100.00;99127.03;15278067;19;20786;-75
2023/03/28 08:08:06;;;;;;;6.25;1.50;;;;;;;2.66;100.00;99122.97;15277285;19;20010;-74
2023/03/28 08:13:40;;;;;;;6.60;1.60;;;;;;;2.61;100.00;99133.91;15283723;19;20842;-75
2023/03/28 08:19:09;;;;;;;7.38;1.38;;;;;;;2.69;100.00;99134.28;15275913;19;20014;-76
2023/03/28 08:24:57;;;;;;;7.22;1.35;;;;;;;2.85;100.00;99128.88;15281257;19;20013;-76
2023/03/28 08:30:23;;;;;;;7.18;1.80;;;;;;;3.03;100.00;99131.38;15279965;19;20423;-75
2023/03/28 08:35:50;;;;;;;4.95;1.50;;;;;;;3.14;100.00;99149.31;15293761;19;20036;-73
2023/03/28 08:41:31;;;;;;;5.70;1.60;;;;;;;2.98;100.00;99134.31;15336846;19;20007;-73
2023/03/28 08:47:01;;;;;;;5.82;1.48;;;;;;;2.81;100.00;99148.66;15295643;19;20011;-75
2023/03/28 08:52:30;;;;;;;5.45;1.30;;;;;;;2.91;100.00;99140.94;15277712;19;20010;-74
2023/03/28 08:58:00;;;;;;;5.35;1.20;;;;;;;3.27;100.00;99138.75;15277585;19;20019;-74
2023/03/28 09:03:26;;;;;;;4.65;1.20;;;;;;;3.31;100.00;99149.13;15277987;19;20018;-75
2023/03/28 09:09:20;;;;;;;9.15;1.48;;;;;;;3.00;100.00;99155.50;15276266;19;20319;-75
2023/03/28 09:15:44;;;;;;;5.03;1.30;;;;;;;3.04;100.00;99160.53;15280196;19;20093;-74
2023/03/28 09:21:21;;;;;;;9.07;1.70;;;;;;;2.78;100.00;99181.63;15270714;19;20037;-75
2023/03/28 09:26:54;;;;;;;7.38;1.67;;;;;;;2.34;100.00;99190.44;15269806;19;20035;-75
2023/03/28 09:32:22;;;;;;;8.60;1.88;;;;;;;2.41;100.00;99197.13;15273869;19;20025;-77
2023/03/28 09:37:44;;;;;;;6.30;1.42;;;;;;;2.61;100.00;99171.16;15282533;19;20018;-77
2023/03/28 09:43:21;;;;;;;8.20;1.43;;;;;;;2.74;100.00;99179.25;15276723;19;20035;-77
2023/03/28 09:48:59;;;;;;;7.38;1.52;;;;;;;2.97;100.00;99179.63;15276473;19;20793;-75
2023/03/28 09:54:23;;;;;;;7.43;1.52;;;;;;;3.00;100.00;99171.47;15278138;19;20051;-77
2023/03/28 09:59:50;;;;;;;6.07;1.40;;;;;;;3.08;100.00;99167.41;15271764;19;20022;-74
2023/03/28 10:05:44;;;;;;;7.78;1.60;;;;;;;3.41;100.00;99164.50;15247729;19;20014;-75
2023/03/28 10:11:21;;;;;;;4.55;1.20;;;;;;;3.82;100.00;99174.34;15272352;19;20078;-75
2023/03/28 10:16:49;;;;;;;5.35;1.30;;;;;;;3.70;100.00;99167.97;15287075;19;20108;-76
2023/03/28 10:22:26;;;;;;;6.38;1.30;;;;;;;3.67;100.00;99168.16;15282782;19;20957;-75
2023/03/28 10:28:01;;;;;;;6.80;1.40;;;;;;;3.69;100.00;99180.47;15279250;19;20031;-75
2023/03/28 10:33:33;;;;;;;4.90;1.13;;;;;;;4.08;100.00;99185.06;15281896;19;20023;-75
2023/03/28 10:39:29;;;;;;;3.63;1.05;;;;;;;4.44;100.00;99168.44;15287247;19;20051;-74
2023/03/28 10:45:23;;;;;;;6.27;1.30;;;;;;;4.60;100.00;99173.59;15289600;19;20002;-75
2023/03/28 10:50:54;;;;;;;5.50;1.25;;;;;;;4.66;100.00;99187.47;15281813;19;20019;-76
2023/03/28 10:56:29;;;;;;;4.28;1.33;;;;;;;4.36;100.00;99175.25;15283156;19;20010;-76
2023/03/28 11:02:07;;;;;;;3.50;1.08;;;;;;;4.24;100.00;99198.25;15284604;19;20596;-77
2023/03/28 11:07:43;;;;;;;4.10;0.82;;;;;;;4.36;100.00;99175.25;15285656;19;20667;-76
2023/03/28 11:13:41;;;;;;;5.55;1.05;;;;;;;4.73;100.00;99168.25;15283301;19;20100;-75
2023/03/28 11:19:17;;;;;;;4.60;1.08;;;;;;;4.62;100.00;99190.38;15287779;19;20022;-77
2023/03/28 11:24:53;;;;;;;3.63;1.00;;;;;;;4.55;100.00;99172.19;15336196;19;20022;-76
2023/03/28 11:30:39;;;;;;;3.88;1.10;;;;;;;4.65;100.00;99191.09;15274851;19;20340;-76
2023/03/28 11:36:22;;;;;;;4.68;1.17;;;;;;;4.46;100.00;99171.88;15282554;19;20015;-76
2023/03/28 11:41:51;;;;;;;3.17;1.08;;;;;;;4.90;100.00;99190.28;15285201;19;20019;-75
2023/03/28 11:47:25;;;;;;;4.85;1.25;;;;;;;4.58;100.00;99172.84;15284808;19;20021;-76
2023/03/28 11:52:59;;;;;;;6.15;1.50;;;;;;;4.56;100.00;99164.06;15276883;19;20026;-77
2023/03/28 11:58:41;;;;;;;5.13;1.30;;;;;;;4.82;100.00;99158.75;15283713;19;20058;-75
2023/03/28 12:04:12;;;;;;;4.85;1.27;;;;;;;5.13;100.00;99153.94;15282961;19;20043;-76
2023/03/28 12:09:43;;;;;;;4.00;1.15;;;;;;;5.46;100.00;99163.19;15284359;19;20116;-75
2023/03/28 12:15:16;;;;;;;4.07;1.30;;;;;;;4.78;100.00;99170.59;15289578;19;20031;-75
2023/03/28 12:20:59;;;;;;;4.28;1.20;;;;;;;4.86;100.00;99154.06;15287494;19;20020;-77
2023/03/28 12:26:44;;;;;;;3.85;1.20;;;;;;;5.37;100.00;99159.38;15287134;19;20015;-76
2023/03/28 12:32:28;;;;;;;4.35;1.25;;;;;;;5.38;100.00;99161.06;15317187;19;20371;-75
2023/03/28 12:38:11;;;;;;;6.43;1.30;;;;;;;5.40;100.00;99152.94;15293456;19;20039;-77
2023/03/28 12:43:50;;;;;;;3.95;1.10;;;;;;;5.50;100.00;99153.97;15283664;19;20094;-76
2023/03/28 12:49:34;;;;;;;2.97;0.90;;;;;;;5.79;100.00;99131.44;15280322;19;20043;-77
2023/03/28 12:55:02;;;;;;;5.45;1.05;;;;;;;6.00;100.00;99139.72;15281633;19;20047;-77
2023/03/28 13:00:37;;;;;;;3.97;1.10;;;;;;;5.62;100.00;99133.53;15280929;19;20133;-76
2023/03/28 13:06:29;;;;;;;3.40;1.17;;;;;;;5.32;100.00;99132.09;15282244;19;20333;-76
2023/03/28 13:12:05;;;;;;;14.80;11.32;;;;;;;5.11;100.00;99136.31;15283141;19;20015;-76
2023/03/28 13:17:32;;;;;;;4.93;1.23;;;;;;;5.31;100.00;99124.22;15288312;19;20014;-76
2023/03/28 13:23:03;;;;;;;13.48;9.63;;;;;;;5.62;100.00;99127.31;15278966;19;20457;-75
2023/03/28 13:28:39;;;;;;;4.53;1.70;;;;;;;5.63;94.14;99123.69;15282685;19;20086;-75
2023/03/28 13:34:06;;;;;;;3.70;1.08;;;;;;;5.81;100.00;99130.38;15319031;19;20031;-75
2023/03/28 13:39:34;;;;;;;3.13;0.95;;;;;;;5.94;88.41;99132.97;15321771;19;20018;-74
2023/03/28 13:45:03;;;;;;;3.40;1.13;;;;;;;5.94;86.90;99129.47;15329619;19;20241;-75
2023/03/28 13:50:34;;;;;;;4.18;1.05;;;;;;;5.91;90.71;99124.34;15296505;19;20039;-76
2023/03/28 13:56:23;;;;;;;3.73;1.00;;;;;;;5.81;90.93;99126.81;15276900;19;20018;-76
2023/03/28 14:01:56;;;;;;;4.00;0.88;;;;;;;5.86;92.87;99122.00;15272719;19;20015;-76
2023/03/28 14:07:26;;;;;;;2.42;0.80;;;;;;;5.84;81.75;99126.59;15274133;19;20039;-76
2023/03/28 14:12:53;;;;;;;3.80;0.95;;;;;;;5.78;76.28;99124.38;15268851;19;20019;-76
2023/03/28 14:18:20;;;;;;;4.07;0.82;;;;;;;5.95;90.72;99128.47;15336616;19;20013;-75
2023/03/28 14:23:47;;;;;;;3.60;1.08;;;;;;;5.91;91.36;99129.69;15267744;19;20683;-76
2023/03/28 14:29:24;;;;;;;3.47;1.08;;;;;;;5.75;77.31;99133.47;15261436;19;20022;-74
2023/03/28 14:34:49;;;;;;;5.22;1.00;;;;;;;5.83;80.17;99120.38;15269743;19;20470;-77
2023/03/28 14:40:26;;;;;;;3.10;0.93;;;;;;;5.99;73.31;99108.56;15264429;19;20015;-77
2023/03/28 14:45:55;;;;;;;3.00;0.80;;;;;;;6.07;72.17;99108.00;15270869;19;20018;-75
2023/03/28 14:51:22;;;;;;;4.00;1.20;;;;;;;6.59;75.71;99101.34;15272835;19;20487;-76
2023/03/28 14:56:48;;;;;;;3.13;0.88;;;;;;;6.66;68.45;99101.72;15276349;19;20010;-77
2023/03/28 15:02:27;;;;;;;2.25;1.00;;;;;;;6.59;67.71;99095.13;15233368;19;20018;-76
2023/03/28 15:07:59;;;;;;;3.45;1.10;;;;;;;6.44;70.47;99095.34;15288363;19;20014;-77
2023/03/28 15:13:28;;;;;;;3.60;1.40;;;;;;;6.61;77.05;99088.69;15281890;19;20027;-75
2023/03/28 15:19:05;;;;;;;3.85;0.90;;;;;;;6.86;71.54;99083.25;15288074;19;20070;-75
2023/03/28 15:24:33;;;;;;;6.40;1.15;;;;;;;7.09;74.59;99076.91;15288106;19;20019;-76
2023/03/28 15:29:59;;;;;;;4.18;1.00;;;;;;;6.86;69.77;99078.72;15282431;19;20492;-75
2023/03/28 15:35:39;;;;;;;5.47;2.00;;;;;;;6.87;71.35;99067.03;15289093;19;20035;-74
2023/03/28 15:41:11;;;;;;;3.97;1.10;;;;;;;6.95;77.08;99071.78;15285368;19;20017;-75
2023/03/28 15:46:38;;;;;;;2.77;1.00;;;;;;;7.35;71.77;99065.88;15287028;19;20411;-75
2023/03/28 15:52:08;;;;;;;5.38;4.40;;;;;;;7.43;72.40;99056.38;15284077;19;20019;-76
2023/03/28 15:57:35;;;;;;;16.05;12.30;;;;;;;7.33;82.81;99054.47;15262608;19;20011;-76
2023/03/28 16:03:33;;;;;;;4.88;3.03;;;;;;;7.54;73.20;99053.69;15282793;19;20371;-75
2023/03/28 16:09:05;;;;;;;2.97;1.23;;;;;;;7.66;74.15;99052.66;15277342;19;20070;-76
2023/03/28 16:14:30;;;;;;;3.78;1.20;;;;;;;7.82;73.07;99046.03;15281217;19;20015;-75
2023/03/28 16:20:08;;;;;;;4.35;1.60;;;;;;;7.81;74.12;99044.31;15278072;19;20057;-76
2023/03/28 16:25:36;;;;;;;3.22;1.33;;;;;;;7.75;75.81;99037.66;15325483;19;20039;-76
2023/03/28 16:31:01;;;;;;;3.05;1.00;;;;;;;7.70;86.48;99029.94;15300354;19;20521;-76
2023/03/28 16:36:26;;;;;;;3.50;0.98;;;;;;;7.71;82.90;99028.97;15285399;19;20066;-76
2023/03/28 16:41:53;;;;;;;4.07;1.10;;;;;;;7.59;74.65;99032.69;15281656;19;20057;-75
2023/03/28 16:47:18;;;;;;;3.83;1.30;;;;;;;7.49;80.49;99027.25;15280788;19;20669;-75
2023/03/28 16:52:43;;;;;;;3.58;1.17;;;;;;;7.47;88.87;99020.28;15277620;19;20002;-76
2023/03/28 16:58:10;;;;;;;4.88;1.20;;;;;;;7.35;94.95;99009.59;15290146;19;20398;-76
2023/03/28 17:03:35;;;;;;;3.08;1.08;;;;;;;7.24;99.11;99007.81;15286360;19;20074;-77
2023/03/28 17:09:10;;;;;;;3.47;1.15;;;;;;;7.09;100.00;98996.53;15238848;19;10000562;-76
2023/03/28 17:14:37;;;;;;;3.72;1.00;;;;;;;6.97;100.00;98994.84;15289455;19;20329;-77
2023/03/28 17:20:04;;;;;;;3.03;1.00;;;;;;;6.80;100.00;98988.16;15312460;19;20018;-76
2023/03/28 17:25:29;;;;;;;2.78;1.00;;;;;;;6.68;100.00;98987.31;15322602;19;20019;-76
2023/03/28 17:31:15;;;;;;;4.38;1.20;;;;;;;6.46;100.00;98983.66;15283439;19;20111;-76
2023/03/28 17:36:39;;;;;;;2.80;1.10;;;;;;;6.06;100.00;98985.94;15283950;19;20078;-76
2023/03/28 17:42:05;;;;;;;3.70;1.20;;;;;;;5.77;100.00;98984.50;15284440;19;20021;-77
2023/03/28 17:47:33;;;;;;;4.35;1.15;;;;;;;5.64;100.00;98978.38;15285603;19;20024;-77
2023/03/28 17:52:59;;;;;;;3.00;0.90;;;;;;;5.42;100.00;98971.09;15281021;19;20022;-77
2023/03/28 17:58:24;;;;;;;4.00;1.27;;;;;;;5.03;100.00;98981.94;15285037;19;20019;-76
2023/03/28 18:03:51;;;;;;;3.78;1.10;;;;;;;4.75;100.00;98973.31;15290600;19;20015;-78
2023/03/28 18:09:45;;;;;;;6.13;1.30;;;;;;;4.51;100.00;98974.09;15285023;19;20022;-77
2023/03/28 18:15:11;;;;;;;6.07;1.35;;;;;;;4.45;100.00;98978.03;15280390;19;20078;-78
2023/03/28 18:20:40;;;;;;;6.60;1.30;;;;;;;4.41;100.00;98975.72;15286037;19;20022;-78
2023/03/28 18:26:11;;;;;;;4.55;1.30;;;;;;;4.32;100.00;98983.38;15290218;19;20006;-78
2023/03/28 18:31:37;;;;;;;3.17;1.30;;;;;;;4.21;100.00;98990.44;15287412;19;20014;-79
2023/03/28 18:37:05;;;;;;;3.80;1.30;;;;;;;4.12;100.00;98987.44;15307672;19;20043;-77
2023/03/28 18:42:31;;;;;;;3.53;1.13;;;;;;;4.06;100.00;98984.34;15293969;19;20101;-80
2023/03/28 18:47:56;;;;;;;4.43;1.40;;;;;;;3.97;100.00;98984.00;15293696;19;20079;-75
2023/03/28 18:53:24;;;;;;;3.30;1.27;;;;;;;3.84;100.00;98968.03;15290288;19;20022;-76
2023/03/28 18:58:49;;;;;;;4.13;1.30;;;;;;;3.72;100.00;98970.66;15293327;19;20025;-76
2023/03/28 19:04:14;;;;;;;4.25;1.23;;;;;;;3.64;100.00;98964.03;15291700;19;20038;-77
2023/03/28 19:09:41;;;;;;;4.25;1.38;;;;;;;3.57;100.00;98949.44;15296438;19;20018;-75
2023/03/28 19:15:09;;;;;;;4.60;1.55;;;;;;;3.50;100.00;98942.78;15308167;19;20023;-78
2023/03/28 19:20:33;;;;;;;3.03;1.40;;;;;;;3.40;100.00;98934.59;15303241;19;20818;-77
2023/03/28 19:26:07;;;;;;;4.35;1.70;;;;;;;3.35;100.00;98926.88;15299859;19;20518;-76
2023/03/28 19:31:32;;;;;;;3.75;1.67;;;;;;;3.30;100.00;98923.69;15295468;19;20098;-76
2023/03/28 19:36:56;;;;;;;5.22;1.40;;;;;;;3.21;100.00;98916.31;15293106;19;20014;-77
2023/03/28 19:42:23;;;;;;;4.72;1.60;;;;;;;3.13;100.00;98921.28;15292635;19;20505;-76
2023/03/28 19:47:48;;;;;;;4.40;1.60;;;;;;;3.10;100.00;98921.50;15295827;19;20092;-78
2023/03/28 19:53:13;;;;;;;3.65;1.45;;;;;;;3.04;100.00;98931.59;15290034;19;20090;-77
2023/03/28 19:58:40;;;;;;;4.97;2.22;;;;;;;3.04;100.00;98936.09;15294539;19;20014;-77
2023/03/28 20:04:05;;;;;;;4.47;2.55;;;;;;;3.05;100.00;98912.00;15309345;19;20015;-77
2023/03/28 20:09:29;;;;;;;5.43;2.65;;;;;;;3.09;100.00;98910.00;15295718;19;20029;-78
2023/03/28 20:14:56;;;;;;;5.90;2.00;;;;;;;3.06;100.00;98896.88;15309240;19;20019;-77
2023/03/28 20:20:29;;;;;;;5.82;1.95;;;;;;;3.01;100.00;98901.66;15309976;19;20502;-76
2023/03/28 20:25:56;;;;;;;4.18;2.20;;;;;;;3.02;100.00;98912.22;15336434;19;20541;-75
2023/03/28 20:31:23;;;;;;;7.18;2.20;;;;;;;3.04;100.00;98914.78;15294024;19;20018;-77
2023/03/28 20:36:48;;;;;;;4.40;2.15;;;;;;;3.06;100.00;98895.09;15289413;19;20006;-76
2023/03/28 20:42:13;;;;;;;6.47;1.77;;;;;;;3.05;100.00;98879.22;15283363;19;20609;-77
2023/03/28 20:47:41;;;;;;;5.15;1.70;;;;;;;3.00;100.00;98890.16;15288594;19;20018;-76
2023/03/28 20:53:06;;;;;;;5.68;1.80;;;;;;;2.99;100.00;98880.50;15281847;19;20066;-76
2023/03/28 20:58:33;;;;;;;4.57;1.60;;;;;;;2.95;100.00;98873.66;15290140;19;20019;-77
2023/03/28 21:04:01;;;;;;;5.03;1.77;;;;;;;2.93;100.00;98872.91;15288178;19;20437;-76
2023/03/28 21:09:26;;;;;;;2.42;1.38;;;;;;;2.85;100.00;98862.75;15280085;19;20277;-76
2023/03/28 21:14:51;;;;;;;5.75;1.77;;;;;;;2.79;100.00;98865.84;15286972;19;20481;-77
2023/03/28 21:20:19;;;;;;;2.80;1.50;;;;;;;2.79;100.00;98855.19;15287135;19;20401;-76
2023/03/28 21:25:44;;;;;;;4.63;1.60;;;;;;;2.78;100.00;98841.00;15285868;19;20017;-76
2023/03/28 21:31:12;;;;;;;4.05;1.35;;;;;;;2.73;100.00;98837.81;15282115;19;20025;-77
2023/03/28 21:36:40;;;;;;;5.93;1.50;;;;;;;2.72;100.00;98833.44;15284930;19;20021;-77
2023/03/28 21:42:06;;;;;;;5.93;1.38;;;;;;;2.74;100.00;98828.00;15281593;19;20077;-77
2023/03/28 21:47:30;;;;;;;3.70;1.80;;;;;;;2.77;100.00;98838.47;15284739;19;20017;-77
2023/03/28 21:52:57;;;;;;;4.22;1.40;;;;;;;2.76;100.00;98826.94;15285956;19;20006;-76
2023/03/28 21:58:22;;;;;;;4.15;1.38;;;;;;;2.80;100.00;98824.09;15291719;19;20014;-77
2023/03/28 22:03:48;;;;;;;4.25;1.30;;;;;;;2.80;100.00;98827.63;15292462;19;20074;-78
2023/03/28 22:09:15;;;;;;;4.22;1.40;;;;;;;2.80;100.00;98816.09;15303796;19;20047;-77
2023/03/28 22:14:40;;;;;;;3.88;1.42;;;;;;;2.80;100.00;98810.78;15307774;19;20007;-77
2023/03/28 22:20:06;;;;;;;4.07;1.60;;;;;;;2.76;100.00;98800.34;15306508;19;20018;-78
2023/03/28 22:25:37;;;;;;;4.82;1.50;;;;;;;2.78;100.00;98792.28;15311112;19;20010;-78
2023/03/28 22:31:03;;;;;;;3.63;1.20;;;;;;;2.80;100.00;98797.47;15305039;19;20370;-77
2023/03/28 22:36:28;;;;;;;4.07;1.23;;;;;;;2.78;100.00;98793.13;15308181;19;20011;-80
2023/03/28 22:41:57;;;;;;;3.65;1.30;;;;;;;2.80;100.00;98795.69;15299377;19;20011;-77
2023/03/28 22:47:29;;;;;;;3.88;1.23;;;;;;;2.77;100.00;98799.38;15303531;19;20023;-77
2023/03/28 22:52:54;;;;;;;4.07;1.20;;;;;;;2.74;100.00;98798.75;15301959;19;20375;-77
2023/03/28 22:58:24;;;;;;;4.20;1.27;;;;;;;2.72;100.00;98788.22;15316953;19;20062;-76
2023/03/28 23:03:50;;;;;;;3.47;1.17;;;;;;;2.71;100.00;98783.84;15292814;19;20011;-76
2023/03/28 23:09:17;;;;;;;2.65;1.00;;;;;;;2.73;100.00;98778.41;15292747;19;20020;-75
2023/03/28 23:14:47;;;;;;;3.75;1.20;;;;;;;2.71;100.00;98773.22;15287337;19;20021;-76
2023/03/28 23:20:17;;;;;;;2.75;1.10;;;;;;;2.71;100.00;98775.88;15300595;19;20007;-74
2023/03/28 23:25:34;;;;;;;2.53;1.00;;;;;;;2.74;100.00;98764.16;15341676;19;20053;-76
2023/03/28 23:31:02;;;;;;;3.33;1.30;;;;;;;2.75;100.00;98766.75;15289891;19;20089;-76
2023/03/28 23:36:29;;;;;;;3.78;1.45;;;;;;;2.74;100.00;98762.38;15296616;19;20006;-76
2023/03/28 23:42:01;;;;;;;3.33;1.20;;;;;;;2.69;100.00;98751.16;15342306;19;20014;-77
2023/03/28 23:47:28;;;;;;;3.38;1.20;;;;;;;2.68;100.00;98746.81;15341123;19;20014;-76
2023/03/28 23:52:53;;;;;;;3.72;1.15;;;;;;;2.68;100.00;98738.81;15332178;19;20014;-76
2023/03/28 23:58:18;;;;;;;2.38;1.10;;;;;;;2.65;100.00;98733.69;15334650;19;20018;-75
